ADDS METAR Data INFO
IDs: Format: Raw Decoded Include TAF

Data at: 0455 UTC 23 May 2017

KF05 230435Z AUTO 04004KT 10SM SCT080 SCT090 18/15 A2998 RMK AO1 T01840154
KF05 230415Z AUTO 01009KT 10SM SCT090 18/15 A2998 RMK AO1 T01830150
KF05 230355Z AUTO 00000KT 10SM CLR 18/14 A2998 RMK AO1 LTG DSNT SE AND SW T01800143
KF05 230335Z AUTO 10003KT 10SM SCT070 SCT120 18/12 A2996 RMK AO1 LTG DSNT SE AND S T01820124
KF05 230315Z AUTO 07003KT 10SM VCTS SCT025 BKN070 19/13 A2997 RMK AO1 LTG DSNT ALQS T01860134
KF05 230255Z AUTO 15010KT TS A2996 RMK AO1 LTG DSNT ALQS 6//// PNO
KF05 230235Z AUTO 05007KT 10SM VCTS SCT040 BKN047 OVC100 22/15 A2995 RMK AO1 LTG DSNT NW THRU E T02170146
KF05 230215Z AUTO 13003KT 10SM VCTS SCT034 BKN075 OVC095 22/14 A2994 RMK AO1 LTG DSNT NW THRU E T02180143
KF05 230155Z AUTO 14005KT 10SM BKN031 BKN044 BKN075 22/14 A2992 RMK AO1 LTG DSNT W THRU N T02210141
KF05 230135Z AUTO 10004KT 10SM SCT045 SCT070 SCT095 22/14 A2992 RMK AO1 LTG DSNT NE AND NW T02220139
KF05 230115Z AUTO 14006KT 10SM BKN095 23/14 A2991 RMK AO1 LTG DSNT NW THRU NE T02260135
KF05 230055Z AUTO 15006KT 10SM CLR 23/13 A2991 RMK AO1 LTG DSNT N AND NW T02300132
KF05 230035Z AUTO 15008KT 10SM CLR 24/13 A2991 RMK AO1 LTG DSNT N NE AND S T02360130
KF05 230015Z AUTO 14009KT 10SM CLR 24/13 A2991 RMK AO1 LTG DSNT N AND NE T02410129
KF05 222355Z AUTO 14010KT 10SM SCT090 24/13 A2991 RMK AO1 LTG DSNT N T02430127 10258 20124
KF05 222335Z AUTO 15008KT 10SM SCT050 SCT070 BKN120 24/13 A2992 RMK AO1 T02410127
KF05 222315Z AUTO 14006KT 10SM BKN050 BKN070 OVC080 24/13 A2993 RMK AO1 T02370127
KF05 222255Z AUTO 17005KT 10SM BKN050 BKN070 OVC090 24/13 A2995 RMK AO1 LTG DSNT N T02380127
KF05 222235Z AUTO 17007KT 10SM SCT070 BKN090 24/13 A2995 RMK AO1 LTG DSNT N T02420128
KF05 222215Z AUTO 15009KT 10SM SCT032 SCT050 BKN080 24/13 A2995 RMK AO1 LTG DSNT NE T02400128
KF05 222155Z AUTO 13006KT 10SM BKN032 BKN042 OVC050 24/13 A2996 RMK AO1 T02370127
KF05 222135Z AUTO 16006KT 10SM OVC032 24/13 A2997 RMK AO1 LTG DSNT N T02380128
KF05 222115Z AUTO 19005KT 10SM SCT032 BKN047 OVC070 24/13 A2998 RMK AO1 LTG DSNT N T02420127
KF05 222055Z AUTO 13005KT 10SM SCT032 BKN070 23/12 A2998 RMK AO1 LTG DSNT N T02330124
KF05 222035Z AUTO 12004KT 10SM BKN032 BKN045 23/12 A2999 RMK AO1 T02320124
KF05 222015Z AUTO 14006KT 10SM BKN030 BKN039 OVC045 23/12 A3001 RMK AO1 T02290121
KF05 221955Z AUTO 00000KT 10SM BKN030 OVC045 23/12 A3002 RMK AO1 T02250121
KF05 221935Z AUTO 14003KT 10SM SCT028 OVC033 23/13 A3002 RMK AO1 LTG DSNT NE T02290125
KF05 221915Z AUTO 13005KT 10SM BKN031 BKN048 23/12 A3002 RMK AO1 T02300123
KF05 221855Z AUTO 13007KT 10SM SCT024 SCT035 BKN048 23/12 A3003 RMK AO1 T02250120
KF05 221835Z AUTO 09007KT 10SM SCT024 OVC033 22/12 A3004 RMK AO1 T02170119
KF05 221815Z AUTO 11006KT 10SM SCT022 OVC031 21/12 A3005 RMK AO1 T02070121
KF05 221755Z AUTO 15005KT 10SM BKN022 OVC029 21/12 A3006 RMK AO1 T02060119 10258 20124
KF05 221735Z AUTO 09005KT 10SM SCT022 OVC029 20/12 A3007 RMK AO1 T02040117
KF05 221715Z AUTO 12006KT 10SM OVC029 20/11 A3007 RMK AO1 T01990113
KF05 221655Z AUTO 13003KT 10SM BKN027 20/12 A3008 RMK AO1 T01970115
KF05 221635Z AUTO 10006KT 10SM BKN027 19/12 A3008 RMK AO1 T01910117
KF05 221615Z AUTO 10005KT 10SM OVC027 19/12 A3009 RMK AO1 T01850120
KF05 221555Z AUTO 07006KT 10SM OVC027 18/12 A3010 RMK AO1 T01840120
KF05 221535Z AUTO 05006KT 10SM OVC025 18/12 A3011 RMK AO1 T01810118
KF05 221515Z AUTO 08003KT 10SM OVC025 18/12 A3012 RMK AO1 T01770116
KF05 221455Z AUTO 00000KT 10SM OVC025 17/12 A3013 RMK AO1 T01720119
KF05 221435Z AUTO 24003KT 10SM OVC028 17/12 A3014 RMK AO1 T01690122
KF05 221415Z AUTO 28003KT 10SM OVC030 17/12 A3015 RMK AO1 T01680124
KF05 221355Z AUTO 27005KT 10SM OVC028 17/12 A3015 RMK AO1 T01670124
KF05 221335Z AUTO 26004KT 10SM OVC028 17/12 A3013 RMK AO1 T01650121
KF05 221315Z AUTO 21003KT 10SM BKN028 OVC037 16/12 A3012 RMK AO1 T01640120
KF05 221255Z AUTO 18003KT 10SM SCT037 OVC075 16/12 A3011 RMK AO1 T01610118
KF05 221235Z AUTO 00000KT 10SM OVC075 16/12 A3011 RMK AO1 LTG DSNT N T01570115
KF05 221215Z AUTO 00000KT 10SM SCT075 15/11 A3011 RMK AO1 T01520112
KF05 221155Z AUTO 14003KT 10SM CLR 15/11 A3010 RMK AO1 T01500110 10258 20124
KF05 221135Z AUTO 14006KT 10SM SCT085 15/11 A3009 RMK AO1 T01470110
KF05 221115Z AUTO 11003KT 10SM SCT085 15/11 A3009 RMK AO1 LTG DSNT NW T01470109
KF05 221055Z AUTO 10004KT 10SM SCT085 15/11 A3009 RMK AO1 LTG DSNT N T01510106
KF05 221035Z AUTO 12004KT 10SM BKN075 15/11 A3009 RMK AO1 T01510108
KF05 221015Z AUTO 09003KT 10SM SCT075 15/11 A3011 RMK AO1 T01510107
KF05 220955Z AUTO 09005KT 10SM SCT075 16/11 A3010 RMK AO1 T01550106
KF05 220935Z AUTO 09004KT 10SM BKN075 16/10 A3011 RMK AO1 T01590104
KF05 220915Z AUTO 11003KT 10SM BKN075 16/11 A3011 RMK AO1 T01610107
KF05 220855Z AUTO 11004KT 10SM BKN075 16/11 A3011 RMK AO1 T01610110
KF05 220835Z AUTO 11006KT 10SM SCT060 SCT075 16/11 A3011 RMK AO1 LTG DSNT NW T01600111
KF05 220815Z AUTO 09005KT 10SM SCT060 SCT070 16/12 A3012 RMK AO1 LTG DSNT NW T01570115
KF05 220755Z AUTO 09004KT 10SM BKN065 16/12 A3013 RMK AO1 T01570120
KF05 220735Z AUTO 08005KT 10SM OVC065 16/12 A3013 RMK AO1 T01550121
KF05 220715Z AUTO 06005KT 10SM SCT065 15/12 A3014 RMK AO1 T01510117
KF05 220655Z AUTO 04005KT 10SM CLR 15/12 A3014 RMK AO1 T01520117
KF05 220635Z AUTO 03004KT 10SM CLR 16/12 A3015 RMK AO1 T01610116
KF05 220615Z AUTO 00000KT 10SM CLR 17/11 A3014 RMK AO1 T01700108
KF05 220555Z AUTO 00000KT 10SM CLR 17/11 A3013 RMK AO1 T01690114 10258 20124 402580124
KF05 220535Z AUTO 00000KT 10SM CLR 17/12 A3013 RMK AO1 T01690117
KF05 220515Z AUTO 12003KT 10SM CLR 18/12 A3014 RMK AO1 T01750115
KF05 220455Z AUTO 13004KT 10SM CLR 18/12 A3014 RMK AO1 T01750115
KF05 220435Z AUTO 13004KT 10SM CLR 18/12 A3014 RMK AO1 T01790115
KF05 220415Z AUTO 12005KT 10SM CLR 18/12 A3014 RMK AO1 T01830117
KF05 220355Z AUTO 12006KT 10SM CLR 19/12 A3014 RMK AO1 T01880115
KF05 220335Z AUTO 12006KT 10SM CLR 20/11 A3014 RMK AO1 T01950113
KF05 220315Z AUTO 11006KT 10SM CLR 19/12 A3013 RMK AO1 T01930115
KF05 220255Z AUTO 10005KT 10SM CLR 20/11 A3012 RMK AO1 T01950111
KF05 220235Z AUTO 10005KT 10SM CLR 20/11 A3012 RMK AO1 T02020105
KF05 220215Z AUTO 11005KT 10SM CLR 21/10 A3012 RMK AO1 T02080101
KF05 220155Z AUTO 12006KT 10SM CLR 21/10 A3012 RMK AO1 T02110101
KF05 220135Z AUTO 13005KT 10SM CLR 22/10 A3012 RMK AO1 T02180098
KF05 220115Z AUTO 13005KT 10SM CLR 22/09 A3011 RMK AO1 T02230094
KF05 220055Z AUTO 13006KT 10SM CLR 23/10 A3011 RMK AO1 T02250095
KF05 220035Z AUTO 14007KT 10SM CLR 23/09 A3010 RMK AO1 T02310086
KF05 220015Z AUTO 15009KT 10SM CLR 24/08 A3010 RMK AO1 T02380078
KF05 212355Z AUTO 13008KT 10SM CLR 24/08 A3009 RMK AO1 T02430075 10258 20124
KF05 212335Z AUTO 14010KT 10SM CLR 25/07 A3010 RMK AO1 T02470066
KF05 212315Z AUTO 14013KT 10SM CLR 25/06 A3011 RMK AO1 T02510064
KF05 212255Z AUTO 14009KT 10SM CLR 25/06 A3011 RMK AO1 T02540055
KF05 212235Z AUTO 13012KT 10SM CLR 26/06 A3011 RMK AO1 T02550055
KF05 212215Z AUTO 11010G15KT 10SM CLR 26/05 A3011 RMK AO1 T02550052
KF05 212155Z AUTO 12011KT 10SM CLR 26/05 A3010 RMK AO1 T02560048
KF05 212135Z AUTO 13011G15KT 10SM CLR 26/05 A3011 RMK AO1 T02560053
KF05 212115Z AUTO 13010KT 10SM CLR 26/05 A3011 RMK AO1 T02570050
KF05 212055Z AUTO 13009G15KT 10SM CLR 26/05 A3012 RMK AO1 T02570049
KF05 212035Z AUTO 13008KT 10SM CLR 26/05 A3012 RMK AO1 T02560050
KF05 212015Z AUTO 11007KT 10SM CLR 26/05 A3012 RMK AO1 T02550051
KF05 211955Z AUTO 11008G16KT 10SM CLR 26/06 A3013 RMK AO1 T02580057
KF05 211935Z AUTO 12007KT 090V150 10SM CLR 25/06 A3016 RMK AO1 T02530055
KF05 211915Z AUTO 14009KT 10SM CLR 25/05 A3015 RMK AO1 T02520053
KF05 211855Z AUTO 14007KT 10SM CLR 25/06 A3018 RMK AO1 T02510056
KF05 211835Z AUTO 17009KT 10SM CLR 25/05 A3018 RMK AO1 T02450053
KF05 211815Z AUTO 14009KT 10SM CLR 24/06 A3018 RMK AO1 T02430056
KF05 211755Z AUTO 15008KT 10SM CLR 24/05 A3019 RMK AO1 T02410054 10241 20124
KF05 211735Z AUTO 14008KT 10SM CLR 24/05 A3019 RMK AO1 T02360053
KF05 211715Z AUTO 14006G14KT 10SM CLR 23/06 A3020 RMK AO1 T02330055


Page loaded:  04:55 UTC  |   09:55 PM Pacific  |   10:55 PM Mountain  |   11:55 PM Central  |   12:55 AM Eastern

 

ADVISORIES

FORECASTS

FORECASTS

OBSERVATIONS

USER TOOLS

ABOUT US